createdAt,value
2022-08-10T00:01:34.260Z,15.80
2022-08-10T00:04:01.293Z,15.80
2022-08-10T00:06:28.153Z,15.80
2022-08-10T00:08:54.907Z,15.80
2022-08-10T00:11:21.804Z,15.70
2022-08-10T00:13:48.473Z,15.60
2022-08-10T00:16:15.189Z,15.60
2022-08-10T00:18:41.899Z,15.60
2022-08-10T00:21:09.717Z,15.60
2022-08-10T00:23:37.298Z,15.60
2022-08-10T00:26:05.652Z,15.50
2022-08-10T00:28:33.239Z,15.50
2022-08-10T00:31:00.198Z,15.40
2022-08-10T00:33:26.882Z,15.50
2022-08-10T00:35:53.504Z,15.50
2022-08-10T00:38:20.151Z,15.40
2022-08-10T00:40:46.810Z,15.20
2022-08-10T00:43:13.491Z,15.20
2022-08-10T00:45:40.323Z,15.20
2022-08-10T00:48:07.246Z,15.10
2022-08-10T00:50:34.389Z,15.00
2022-08-10T00:53:01.496Z,15.00
2022-08-10T00:55:28.416Z,14.90
2022-08-10T00:57:55.848Z,14.90
2022-08-10T01:00:23.838Z,14.90
2022-08-10T01:02:50.954Z,14.90
2022-08-10T01:05:20.147Z,14.90
2022-08-10T01:08:15.256Z,14.80
2022-08-10T01:11:05.966Z,14.80
2022-08-10T01:14:13.743Z,14.90
2022-08-10T01:16:55.031Z,14.70
2022-08-10T01:19:52.880Z,14.70
2022-08-10T01:22:37.502Z,14.70
2022-08-10T01:25:21.267Z,14.60
2022-08-10T01:28:12.119Z,14.60
2022-08-10T01:30:39.846Z,14.50
2022-08-10T01:33:31.650Z,14.30
2022-08-10T01:36:10.014Z,14.30
2022-08-10T01:38:40.938Z,14.30
2022-08-10T01:41:12.022Z,14.40
2022-08-10T01:43:54.101Z,14.30
2022-08-10T01:46:24.086Z,14.30
2022-08-10T01:48:56.093Z,14.10
2022-08-10T01:51:32.652Z,14.20
2022-08-10T01:54:02.990Z,14.20
2022-08-10T01:56:32.617Z,14.00
2022-08-10T01:59:04.546Z,13.90
2022-08-10T02:01:37.788Z,13.90
2022-08-10T02:04:08.159Z,13.80
2022-08-10T02:06:39.837Z,13.70
2022-08-10T02:09:07.901Z,13.80
2022-08-10T02:12:05.430Z,13.80
2022-08-10T02:14:33.441Z,13.70
2022-08-10T02:17:07.764Z,13.80
2022-08-10T02:19:38.362Z,13.60
2022-08-10T02:22:35.144Z,13.60
2022-08-10T02:24:56.036Z,13.60
2022-08-10T02:27:25.313Z,13.50
2022-08-10T02:29:53.500Z,13.40
2022-08-10T02:32:38.365Z,13.30
2022-08-10T02:35:11.363Z,13.30
2022-08-10T02:37:51.235Z,13.40
2022-08-10T02:45:01.238Z,13.30
2022-08-10T02:45:29.763Z,13.30
2022-08-10T02:46:26.433Z,13.10
2022-08-10T02:49:04.771Z,13.10
2022-08-10T02:52:07.709Z,13.20
2022-08-10T02:54:43.107Z,13.30
2022-08-10T02:57:16.490Z,13.20
2022-08-10T02:59:46.457Z,13.20
2022-08-10T03:02:32.455Z,13.10
2022-08-10T03:05:08.208Z,13.10
2022-08-10T03:08:00.639Z,13.10
2022-08-10T03:10:30.659Z,13.00
2022-08-10T03:13:05.124Z,13.00
2022-08-10T03:15:34.331Z,13.00
2022-08-10T03:18:02.602Z,13.00
2022-08-10T03:20:36.533Z,13.00
2022-08-10T03:23:11.081Z,12.90
2022-08-10T03:25:39.019Z,12.80
2022-08-10T03:28:06.939Z,12.90
2022-08-10T03:30:35.008Z,12.80
2022-08-10T03:33:05.256Z,12.80
2022-08-10T03:35:32.585Z,12.80
2022-08-10T03:38:00.731Z,12.80
2022-08-10T03:40:32.267Z,12.80
2022-08-10T03:43:17.238Z,12.70
2022-08-10T03:45:55.406Z,12.70
2022-08-10T03:48:44.631Z,12.60
2022-08-10T03:51:16.446Z,12.50
2022-08-10T03:54:05.093Z,12.50
2022-08-10T03:56:33.001Z,12.50
2022-08-10T03:59:01.231Z,12.40
2022-08-10T04:02:43.693Z,12.40
2022-08-10T04:04:20.857Z,12.50
2022-08-10T04:06:51.297Z,12.30
2022-08-10T04:09:21.178Z,12.30
2022-08-10T04:11:47.836Z,12.30
2022-08-10T04:14:38.205Z,12.40
2022-08-10T04:17:01.241Z,12.40
2022-08-10T04:19:29.761Z,12.30
2022-08-10T04:22:13.640Z,12.30
2022-08-10T04:24:42.702Z,12.10
2022-08-10T04:27:09.816Z,12.10
2022-08-10T04:29:36.790Z,12.20
2022-08-10T04:32:04.518Z,12.20
2022-08-10T04:34:32.422Z,12.10
2022-08-10T04:37:09.225Z,12.20
2022-08-10T04:39:36.489Z,12.20
2022-08-10T04:42:03.847Z,12.30
2022-08-10T04:44:30.961Z,12.20
2022-08-10T04:46:59.398Z,12.00
2022-08-10T04:49:53.854Z,12.10
2022-08-10T04:52:14.068Z,12.20
2022-08-10T04:54:40.747Z,12.30
2022-08-10T04:57:08.880Z,12.40
2022-08-10T04:59:39.763Z,12.50
2022-08-10T05:02:30.043Z,12.50
2022-08-10T05:04:54.107Z,12.60
2022-08-10T05:07:20.776Z,12.60
2022-08-10T05:10:01.082Z,12.60
2022-08-10T05:12:37.707Z,12.60
2022-08-10T05:15:06.439Z,12.80
2022-08-10T05:17:34.621Z,12.90
2022-08-10T05:20:06.503Z,12.80
2022-08-10T05:22:40.744Z,13.00
2022-08-10T05:25:16.107Z,13.10
2022-08-10T05:27:43.767Z,13.20
2022-08-10T05:30:13.721Z,13.40
2022-08-10T05:32:58.235Z,13.50
2022-08-10T05:35:27.285Z,13.60
2022-08-10T05:38:11.629Z,13.70
2022-08-10T05:40:46.644Z,13.80
2022-08-10T05:43:19.489Z,14.00
2022-08-10T05:46:19.267Z,14.00
2022-08-10T05:48:54.602Z,14.20
2022-08-10T05:51:23.197Z,14.60
2022-08-10T05:54:01.748Z,15.40
2022-08-10T05:56:56.214Z,16.10
2022-08-10T06:00:35.327Z,17.10
2022-08-10T06:02:41.704Z,17.70
2022-08-10T06:05:05.549Z,17.60
2022-08-10T06:07:35.135Z,17.60
2022-08-10T06:10:02.656Z,18.00
2022-08-10T06:12:53.373Z,18.20
2022-08-10T06:15:21.618Z,18.70
2022-08-10T06:18:07.650Z,18.90
2022-08-10T06:20:36.231Z,19.70
2022-08-10T06:23:06.115Z,20.80
2022-08-10T06:26:10.410Z,21.70
2022-08-10T06:28:20.846Z,21.00
2022-08-10T06:30:49.148Z,20.50
2022-08-10T06:33:17.112Z,20.40
2022-08-10T06:35:44.679Z,20.70
2022-08-10T06:38:12.612Z,20.90
2022-08-10T06:40:45.727Z,21.20
2022-08-10T06:43:16.959Z,22.20
2022-08-10T06:46:07.762Z,22.30
2022-08-10T06:48:41.464Z,22.70
2022-08-10T06:51:15.262Z,22.80
2022-08-10T06:53:53.269Z,23.10
2022-08-10T06:56:35.989Z,23.30
2022-08-10T06:59:21.960Z,23.40
2022-08-10T07:01:57.334Z,23.40
2022-08-10T07:04:34.886Z,23.90
2022-08-10T07:07:05.003Z,25.20
2022-08-10T07:09:34.835Z,25.20
2022-08-10T07:12:08.544Z,25.60
2022-08-10T07:14:42.402Z,26.10
2022-08-10T07:17:15.683Z,26.00
2022-08-10T07:19:50.133Z,25.80
2022-08-10T07:23:01.305Z,25.50
2022-08-10T07:25:10.797Z,25.60
2022-08-10T07:27:58.833Z,25.90
2022-08-10T07:30:30.459Z,26.50
2022-08-10T07:32:58.588Z,27.30
2022-08-10T07:35:28.951Z,28.50
2022-08-10T07:37:59.075Z,28.70
2022-08-10T07:40:26.370Z,29.10
2022-08-10T07:42:57.969Z,29.70
2022-08-10T07:45:28.949Z,29.90
2022-08-10T07:48:06.657Z,30.80
2022-08-10T07:50:38.026Z,31.70
2022-08-10T07:53:07.043Z,32.50
2022-08-10T07:56:04.416Z,33.20
2022-08-10T07:58:27.248Z,33.50
2022-08-10T08:01:07.016Z,33.70
2022-08-10T08:03:34.406Z,34.00
2022-08-10T08:06:05.527Z,34.00
2022-08-10T08:08:42.086Z,34.50
2022-08-10T08:11:10.270Z,34.20
2022-08-10T08:13:55.026Z,34.20
2022-08-10T08:16:24.460Z,34.50
2022-08-10T08:19:26.752Z,34.40
2022-08-10T08:24:06.549Z,34.80
2022-08-10T08:24:34.882Z,35.20
2022-08-10T08:27:03.924Z,35.70
2022-08-10T08:29:36.258Z,36.20
2022-08-10T08:32:04.651Z,35.70
2022-08-10T08:34:37.450Z,35.90
2022-08-10T08:37:08.804Z,36.80
2022-08-10T08:39:37.073Z,37.20
2022-08-10T08:42:38.396Z,37.50
2022-08-10T08:45:17.309Z,36.90
2022-08-10T08:48:11.217Z,37.00
2022-08-10T08:51:04.645Z,36.90
2022-08-10T08:54:02.122Z,37.10
2022-08-10T08:56:45.751Z,37.20
2022-08-10T08:59:41.371Z,37.80
2022-08-10T09:02:37.375Z,37.10
2022-08-10T09:05:58.802Z,37.50
2022-08-10T09:08:57.693Z,38.30
2022-08-10T09:12:02.199Z,37.80
2022-08-10T09:14:33.367Z,37.10
2022-08-10T09:17:11.966Z,36.40
2022-08-10T09:20:17.028Z,35.80
2022-08-10T09:22:50.474Z,36.10
2022-08-10T09:25:26.079Z,36.50
2022-08-10T09:28:00.611Z,36.70
2022-08-10T09:30:38.203Z,37.30
2022-08-10T09:36:23.691Z,37.20
2022-08-10T09:36:36.387Z,36.60
2022-08-10T09:40:56.785Z,37.60
2022-08-10T09:42:05.850Z,38.20
2022-08-10T09:45:09.824Z,38.20
2022-08-10T09:48:03.033Z,38.60
2022-08-10T09:51:22.389Z,38.30
2022-08-10T09:53:55.933Z,37.90
2022-08-10T09:56:32.387Z,38.30
2022-08-10T09:59:56.746Z,38.50
2022-08-10T10:02:48.861Z,38.80
2022-08-10T10:05:18.421Z,39.10
2022-08-10T10:07:53.809Z,38.90
2022-08-10T10:10:29.795Z,38.20
2022-08-10T10:13:20.151Z,38.20
2022-08-10T10:16:14.399Z,38.30
2022-08-10T10:19:23.878Z,38.20
2022-08-10T10:22:07.656Z,38.40
2022-08-10T10:24:48.002Z,38.10
2022-08-10T10:27:32.606Z,38.50
2022-08-10T10:30:11.409Z,40.00
2022-08-10T10:32:59.444Z,40.30
2022-08-10T10:35:43.619Z,40.60
2022-08-10T10:38:13.273Z,39.60
2022-08-10T10:41:07.070Z,39.50
2022-08-10T10:44:02.563Z,39.60
2022-08-10T10:46:36.821Z,39.20
2022-08-10T10:49:31.163Z,39.70
2022-08-10T10:52:12.601Z,39.20
2022-08-10T10:55:08.084Z,39.10
2022-08-10T10:58:01.145Z,38.70
2022-08-10T11:00:43.721Z,39.10
2022-08-10T11:03:38.290Z,40.10
2022-08-10T11:06:40.502Z,39.40
2022-08-10T11:10:05.517Z,39.20
2022-08-10T11:12:19.752Z,38.90
2022-08-10T11:15:08.855Z,39.10
2022-08-10T11:18:15.667Z,39.20
2022-08-10T11:21:00.738Z,39.90
2022-08-10T11:24:47.943Z,38.80
2022-08-10T11:26:50.641Z,38.60
2022-08-10T11:29:32.121Z,39.60
2022-08-10T11:32:20.625Z,38.70
2022-08-10T11:35:23.756Z,38.00
2022-08-10T11:38:32.337Z,38.30
2022-08-10T11:42:12.332Z,38.20
2022-08-10T11:44:13.906Z,38.50
2022-08-10T11:46:50.623Z,39.50
2022-08-10T11:49:33.604Z,40.50
2022-08-10T11:52:10.577Z,40.60
2022-08-10T11:54:58.986Z,41.00
2022-08-10T11:57:54.780Z,40.50
2022-08-10T12:00:19.733Z,39.90
2022-08-10T12:02:53.455Z,39.70
2022-08-10T12:05:52.574Z,40.00
2022-08-10T12:10:07.218Z,39.40
2022-08-10T12:11:06.714Z,39.10
2022-08-10T12:14:22.747Z,38.90
2022-08-10T12:16:54.721Z,38.70
2022-08-10T12:19:31.186Z,38.70
2022-08-10T12:22:23.064Z,38.30
2022-08-10T12:24:57.800Z,38.40
2022-08-10T12:27:50.135Z,38.10
2022-08-10T12:30:19.710Z,36.90
2022-08-10T12:33:20.772Z,36.30
2022-08-10T12:36:19.074Z,36.60
2022-08-10T12:39:13.725Z,37.10
2022-08-10T12:41:55.302Z,37.40
2022-08-10T12:44:57.730Z,37.80
2022-08-10T12:47:44.829Z,37.60
2022-08-10T12:50:33.749Z,37.40
2022-08-10T12:53:11.122Z,37.20
2022-08-10T12:55:38.784Z,36.60
2022-08-10T12:58:57.627Z,35.80
2022-08-10T13:01:15.706Z,35.20
2022-08-10T13:04:20.582Z,34.90
2022-08-10T13:06:35.644Z,34.90
2022-08-10T13:09:14.536Z,34.50
2022-08-10T13:12:38.777Z,34.00
2022-08-10T13:14:47.824Z,33.80
2022-08-10T13:17:21.033Z,33.80
2022-08-10T13:19:55.096Z,33.90
2022-08-10T13:22:27.279Z,34.00
2022-08-10T13:24:56.313Z,34.20
2022-08-10T13:28:03.331Z,34.20
2022-08-10T13:30:33.879Z,34.10
2022-08-10T13:33:08.667Z,34.00
2022-08-10T13:35:37.416Z,33.80
2022-08-10T13:38:06.929Z,33.60
2022-08-10T13:40:34.720Z,33.60
2022-08-10T13:43:05.478Z,33.70
2022-08-10T13:45:33.651Z,33.80
2022-08-10T13:48:22.218Z,33.60
2022-08-10T13:50:51.753Z,33.60
2022-08-10T13:53:20.179Z,33.50
2022-08-10T13:55:55.368Z,33.60
2022-08-10T13:58:35.883Z,33.20
2022-08-10T14:01:17.170Z,33.10
2022-08-10T14:03:45.767Z,32.90
2022-08-10T14:06:15.391Z,32.90
2022-08-10T14:08:50.225Z,32.70
2022-08-10T14:11:19.688Z,32.70
2022-08-10T14:13:54.991Z,32.30
2022-08-10T14:16:23.240Z,32.30
2022-08-10T14:18:52.504Z,32.20
2022-08-10T14:21:19.559Z,32.30
2022-08-10T14:23:53.082Z,32.30
2022-08-10T14:26:30.543Z,32.20
2022-08-10T14:29:07.603Z,32.10
2022-08-10T14:31:37.022Z,32.20
2022-08-10T14:34:08.868Z,32.20
2022-08-10T14:36:46.022Z,32.10
2022-08-10T14:39:23.390Z,32.10
2022-08-10T14:42:03.398Z,31.90
2022-08-10T14:44:48.769Z,31.80
2022-08-10T14:47:51.313Z,31.80
2022-08-10T14:50:08.081Z,31.80
2022-08-10T14:52:44.442Z,31.60
2022-08-10T14:55:19.848Z,31.50
2022-08-10T14:58:19.154Z,31.40
2022-08-10T15:00:43.151Z,31.20
2022-08-10T15:04:01.890Z,31.20
2022-08-10T15:06:06.912Z,31.20
2022-08-10T15:08:37.055Z,31.30
2022-08-10T15:11:04.936Z,31.40
2022-08-10T15:13:34.323Z,31.20
2022-08-10T15:16:13.739Z,31.20
2022-08-10T15:18:58.703Z,31.00
2022-08-10T15:21:39.153Z,31.00
2022-08-10T15:24:40.847Z,31.00
2022-08-10T15:27:09.506Z,30.90
2022-08-10T15:29:57.614Z,30.90
2022-08-10T15:32:54.070Z,30.90
2022-08-10T15:35:42.602Z,30.80
2022-08-10T15:38:10.544Z,30.80
2022-08-10T15:40:51.933Z,30.70
2022-08-10T15:43:25.301Z,30.80
2022-08-10T15:45:59.888Z,30.60
2022-08-10T15:48:32.430Z,30.70
2022-08-10T15:51:05.875Z,30.80
2022-08-10T15:53:50.587Z,30.80
2022-08-10T15:56:38.780Z,30.70
2022-08-10T15:59:10.774Z,30.70
2022-08-10T16:02:12.489Z,30.60
2022-08-10T16:04:50.407Z,30.50
2022-08-10T16:07:24.503Z,30.40
2022-08-10T16:10:25.921Z,30.30
2022-08-10T16:13:00.643Z,30.30
2022-08-10T16:15:30.025Z,30.20
2022-08-10T16:18:14.186Z,30.10
2022-08-10T16:20:54.940Z,30.00
2022-08-10T16:23:29.740Z,30.00
2022-08-10T16:26:04.611Z,30.00
2022-08-10T16:28:55.054Z,30.00
2022-08-10T16:31:24.901Z,30.00
2022-08-10T16:33:56.390Z,29.90
2022-08-10T16:36:32.000Z,29.90
2022-08-10T16:38:59.592Z,29.90
2022-08-10T16:42:04.994Z,29.90
2022-08-10T16:44:18.338Z,29.90
2022-08-10T16:46:46.272Z,29.80
2022-08-10T16:49:17.891Z,29.80
2022-08-10T16:51:49.089Z,29.70
2022-08-10T16:54:27.324Z,29.60
2022-08-10T16:57:02.037Z,29.60
2022-08-10T16:59:32.198Z,29.60
2022-08-10T17:02:00.976Z,29.50
2022-08-10T17:04:30.560Z,29.50
2022-08-10T17:07:00.612Z,29.40
2022-08-10T17:09:30.403Z,29.40
2022-08-10T17:11:59.187Z,29.30
2022-08-10T17:14:29.964Z,29.30
2022-08-10T17:17:02.128Z,29.30
2022-08-10T17:19:34.340Z,29.30
2022-08-10T17:22:07.151Z,29.20
2022-08-10T17:24:40.327Z,29.10
2022-08-10T17:28:05.151Z,29.10
2022-08-10T17:30:04.894Z,29.10
2022-08-10T17:32:45.452Z,29.10
2022-08-10T17:35:23.066Z,29.10
2022-08-10T17:37:57.942Z,29.00
2022-08-10T17:40:28.417Z,29.00
2022-08-10T17:42:56.144Z,28.90
2022-08-10T17:45:47.467Z,28.90
2022-08-10T17:48:13.490Z,28.80
2022-08-10T17:50:42.592Z,28.70
2022-08-10T17:53:22.260Z,28.60
2022-08-10T17:55:54.969Z,28.60
2022-08-10T17:58:25.091Z,28.60
2022-08-10T18:00:56.318Z,28.40
2022-08-10T18:03:49.326Z,28.40
2022-08-10T18:06:17.708Z,28.30
2022-08-10T18:08:57.694Z,28.30
2022-08-10T18:11:28.906Z,28.20
2022-08-10T18:14:03.169Z,28.10
2022-08-10T18:16:33.971Z,28.10
2022-08-10T18:19:09.424Z,28.00
2022-08-10T18:21:47.072Z,27.80
2022-08-10T18:24:19.423Z,27.70
2022-08-10T18:26:49.505Z,27.60
2022-08-10T18:29:22.719Z,27.50
2022-08-10T18:31:56.237Z,27.40
2022-08-10T18:34:25.702Z,27.20
2022-08-10T18:36:54.032Z,27.00
2022-08-10T18:39:28.056Z,26.70
2022-08-10T18:42:12.796Z,26.50
2022-08-10T18:44:47.240Z,26.20
2022-08-10T18:47:27.700Z,26.00
2022-08-10T18:50:24.579Z,25.80
2022-08-10T18:53:15.274Z,25.50
2022-08-10T18:55:46.405Z,25.40
2022-08-10T18:59:02.514Z,25.20
2022-08-10T19:01:47.178Z,25.00
2022-08-10T19:04:38.631Z,24.90
2022-08-10T19:07:35.977Z,24.80
2022-08-10T19:10:13.790Z,24.60
2022-08-10T19:13:00.562Z,24.40
2022-08-10T19:15:42.639Z,24.30
2022-08-10T19:18:38.406Z,24.20
2022-08-10T19:21:20.946Z,24.00
2022-08-10T19:24:22.338Z,23.70
2022-08-10T19:27:07.552Z,23.60
2022-08-10T19:30:08.859Z,23.40
2022-08-10T19:33:02.266Z,23.30
2022-08-10T19:36:03.616Z,23.00
2022-08-10T19:38:50.787Z,22.80
2022-08-10T19:41:32.536Z,22.70
2022-08-10T19:44:14.520Z,22.60
2022-08-10T19:46:49.020Z,22.40
2022-08-10T19:49:42.492Z,22.30
2022-08-10T19:52:39.359Z,22.10
2022-08-10T19:55:17.411Z,22.00
2022-08-10T19:57:56.650Z,21.90
2022-08-10T20:00:29.590Z,21.70
2022-08-10T20:03:12.269Z,21.70
2022-08-10T20:06:18.127Z,21.50
2022-08-10T20:08:50.326Z,21.40
2022-08-10T20:11:46.321Z,21.40
2022-08-10T20:14:48.284Z,21.30
2022-08-10T20:17:45.117Z,21.20
2022-08-10T20:20:37.811Z,20.90
2022-08-10T20:23:05.861Z,20.80
2022-08-10T20:25:33.569Z,20.80
2022-08-10T20:28:24.471Z,20.60
2022-08-10T20:31:22.055Z,20.50
2022-08-10T20:34:08.877Z,20.50
2022-08-10T20:36:47.367Z,20.40
2022-08-10T20:39:30.588Z,20.30
2022-08-10T20:42:03.912Z,20.10
2022-08-10T20:44:52.127Z,20.20
2022-08-10T20:47:54.023Z,20.10
2022-08-10T20:50:48.148Z,20.00
2022-08-10T20:53:17.403Z,20.00
2022-08-10T20:55:59.099Z,19.80
2022-08-10T20:58:47.056Z,19.70
2022-08-10T21:02:06.767Z,19.70
2022-08-10T21:04:44.344Z,19.70
2022-08-10T21:08:01.082Z,19.60
2022-08-10T21:10:40.746Z,19.50
2022-08-10T21:13:26.454Z,19.40
2022-08-10T21:16:32.094Z,19.20
2022-08-10T21:19:26.796Z,19.10
2022-08-10T21:22:16.550Z,19.00
2022-08-10T21:24:52.276Z,18.80
2022-08-10T21:27:42.280Z,18.80
2022-08-10T21:30:19.519Z,18.70
2022-08-10T21:33:18.440Z,18.60
2022-08-10T21:35:58.280Z,18.50
2022-08-10T21:38:38.123Z,18.40
2022-08-10T21:41:56.671Z,18.30
2022-08-10T21:45:11.627Z,18.30
2022-08-10T21:48:30.064Z,18.10
2022-08-10T21:51:24.207Z,18.10
2022-08-10T21:57:58.786Z,17.90
2022-08-10T22:00:44.589Z,17.70
2022-08-10T22:06:52.403Z,17.70
2022-08-10T22:09:44.342Z,17.70
2022-08-10T22:12:32.404Z,17.60
2022-08-10T22:16:03.917Z,17.60
2022-08-10T22:19:01.875Z,17.50
2022-08-10T22:21:56.303Z,17.50
2022-08-10T22:25:16.482Z,17.50
2022-08-10T22:28:07.563Z,17.40
2022-08-10T22:31:27.114Z,18.00
2022-08-10T22:31:29.054Z,17.70
2022-08-10T22:34:34.158Z,17.20
2022-08-10T22:37:54.558Z,17.20
2022-08-10T22:40:42.693Z,17.00
2022-08-10T22:43:44.824Z,16.90
2022-08-10T22:46:44.271Z,16.90
2022-08-10T22:49:11.051Z,16.90
2022-08-10T22:52:02.561Z,16.80
2022-08-10T22:55:00.004Z,16.70
2022-08-10T22:57:46.454Z,16.60
2022-08-10T23:00:18.802Z,16.60
2022-08-10T23:03:02.725Z,16.50
2022-08-10T23:05:40.461Z,16.30
2022-08-10T23:08:30.617Z,16.30
2022-08-10T23:11:04.158Z,16.30
2022-08-10T23:13:38.841Z,16.30
2022-08-10T23:16:32.017Z,16.30
2022-08-10T23:19:11.295Z,16.20
2022-08-10T23:22:04.877Z,16.20
2022-08-10T23:24:44.924Z,16.20
2022-08-10T23:27:39.700Z,16.10
2022-08-10T23:30:09.166Z,15.90
2022-08-10T23:32:40.639Z,16.00
2022-08-10T23:36:30.660Z,16.10
2022-08-10T23:38:05.649Z,15.80
2022-08-10T23:40:33.448Z,15.60
2022-08-10T23:43:02.240Z,15.60
2022-08-10T23:45:52.287Z,15.60
2022-08-10T23:48:23.582Z,15.60
2022-08-10T23:50:58.512Z,15.60
2022-08-10T23:53:31.068Z,15.60
2022-08-10T23:56:04.415Z,15.60
2022-08-10T23:58:35.338Z,15.60
